sensor_id;sensor_type;location;lat;lon;timestamp;temperature;humidity
19536;HTU21D;9913;51.168;4.124;2023-01-24T00:00:10;3.04;77.45
19536;HTU21D;9913;51.168;4.124;2023-01-24T00:02:53;2.97;76.92
19536;HTU21D;9913;51.168;4.124;2023-01-24T00:05:26;3.02;76.83
19536;HTU21D;9913;51.168;4.124;2023-01-24T00:07:59;3.04;76.86
19536;HTU21D;9913;51.168;4.124;2023-01-24T00:10:41;3.02;76.71
19536;HTU21D;9913;51.168;4.124;2023-01-24T00:13:26;2.99;77.01
19536;HTU21D;9913;51.168;4.124;2023-01-24T00:16:03;3.01;76.69
19536;HTU21D;9913;51.168;4.124;2023-01-24T00:18:31;3.02;77.02
19536;HTU21D;9913;51.168;4.124;2023-01-24T00:21:00;2.96;76.82
19536;HTU21D;9913;51.168;4.124;2023-01-24T00:23:30;2.97;77.21
19536;HTU21D;9913;51.168;4.124;2023-01-24T00:25:59;2.98;76.95
19536;HTU21D;9913;51.168;4.124;2023-01-24T00:28:27;3.00;76.68
19536;HTU21D;9913;51.168;4.124;2023-01-24T00:30:56;2.97;76.60
19536;HTU21D;9913;51.168;4.124;2023-01-24T00:33:25;2.94;77.02
19536;HTU21D;9913;51.168;4.124;2023-01-24T00:35:54;3.01;77.11
19536;HTU21D;9913;51.168;4.124;2023-01-24T00:38:24;2.98;76.53
19536;HTU21D;9913;51.168;4.124;2023-01-24T00:40:54;3.01;76.79
19536;HTU21D;9913;51.168;4.124;2023-01-24T00:43:22;3.05;76.81
19536;HTU21D;9913;51.168;4.124;2023-01-24T00:45:53;3.13;76.92
19536;HTU21D;9913;51.168;4.124;2023-01-24T00:48:29;3.06;76.47
19536;HTU21D;9913;51.168;4.124;2023-01-24T00:51:07;3.03;77.23
19536;HTU21D;9913;51.168;4.124;2023-01-24T00:53:37;3.02;76.73
19536;HTU21D;9913;51.168;4.124;2023-01-24T00:56:09;3.08;77.18
19536;HTU21D;9913;51.168;4.124;2023-01-24T00:58:38;3.06;77.18
19536;HTU21D;9913;51.168;4.124;2023-01-24T01:01:09;3.02;76.60
19536;HTU21D;9913;51.168;4.124;2023-01-24T01:03:37;3.02;76.44
19536;HTU21D;9913;51.168;4.124;2023-01-24T01:06:07;3.03;77.21
19536;HTU21D;9913;51.168;4.124;2023-01-24T01:08:38;2.96;76.80
19536;HTU21D;9913;51.168;4.124;2023-01-24T01:11:07;3.02;76.70
19536;HTU21D;9913;51.168;4.124;2023-01-24T01:13:37;3.02;76.27
19536;HTU21D;9913;51.168;4.124;2023-01-24T01:16:07;2.99;76.57
19536;HTU21D;9913;51.168;4.124;2023-01-24T01:18:37;2.95;76.74
19536;HTU21D;9913;51.168;4.124;2023-01-24T01:21:06;2.99;76.59
19536;HTU21D;9913;51.168;4.124;2023-01-24T01:23:34;2.91;76.53
19536;HTU21D;9913;51.168;4.124;2023-01-24T01:26:05;2.95;76.78
19536;HTU21D;9913;51.168;4.124;2023-01-24T01:28:35;2.98;76.61
19536;HTU21D;9913;51.168;4.124;2023-01-24T01:31:04;2.94;76.50
19536;HTU21D;9913;51.168;4.124;2023-01-24T01:33:32;2.99;76.86
19536;HTU21D;9913;51.168;4.124;2023-01-24T01:36:01;2.94;76.67
19536;HTU21D;9913;51.168;4.124;2023-01-24T01:38:30;2.99;76.56
19536;HTU21D;9913;51.168;4.124;2023-01-24T01:40:58;2.95;76.86
19536;HTU21D;9913;51.168;4.124;2023-01-24T01:43:28;2.93;76.73
19536;HTU21D;9913;51.168;4.124;2023-01-24T01:46:05;2.95;76.64
19536;HTU21D;9913;51.168;4.124;2023-01-24T01:48:40;2.97;76.77
19536;HTU21D;9913;51.168;4.124;2023-01-24T01:51:14;2.91;76.56
19536;HTU21D;9913;51.168;4.124;2023-01-24T01:53:46;2.95;76.69
19536;HTU21D;9913;51.168;4.124;2023-01-24T01:56:21;2.93;76.66
19536;HTU21D;9913;51.168;4.124;2023-01-24T01:58:51;2.93;76.74
19536;HTU21D;9913;51.168;4.124;2023-01-24T02:01:21;2.86;77.02
19536;HTU21D;9913;51.168;4.124;2023-01-24T02:03:53;2.81;76.61
19536;HTU21D;9913;51.168;4.124;2023-01-24T02:06:37;2.80;76.68
19536;HTU21D;9913;51.168;4.124;2023-01-24T02:09:08;2.84;76.83
19536;HTU21D;9913;51.168;4.124;2023-01-24T02:11:38;2.86;76.59
19536;HTU21D;9913;51.168;4.124;2023-01-24T02:14:09;2.84;76.84
19536;HTU21D;9913;51.168;4.124;2023-01-24T02:16:57;2.79;76.60
19536;HTU21D;9913;51.168;4.124;2023-01-24T02:19:38;2.76;76.74
19536;HTU21D;9913;51.168;4.124;2023-01-24T02:22:15;2.75;76.53
19536;HTU21D;9913;51.168;4.124;2023-01-24T02:24:50;2.79;76.53
19536;HTU21D;9913;51.168;4.124;2023-01-24T02:27:21;2.75;76.53
19536;HTU21D;9913;51.168;4.124;2023-01-24T02:29:50;2.72;76.41
19536;HTU21D;9913;51.168;4.124;2023-01-24T02:32:18;2.76;76.58
19536;HTU21D;9913;51.168;4.124;2023-01-24T02:34:47;2.74;76.56
19536;HTU21D;9913;51.168;4.124;2023-01-24T02:37:19;2.69;76.64
19536;HTU21D;9913;51.168;4.124;2023-01-24T02:39:53;2.64;76.47
19536;HTU21D;9913;51.168;4.124;2023-01-24T02:42:25;2.70;76.90
19536;HTU21D;9913;51.168;4.124;2023-01-24T02:45:02;2.69;76.61
19536;HTU21D;9913;51.168;4.124;2023-01-24T02:47:35;2.68;76.82
19536;HTU21D;9913;51.168;4.124;2023-01-24T02:50:05;2.69;76.68
19536;HTU21D;9913;51.168;4.124;2023-01-24T02:52:36;2.69;76.66
19536;HTU21D;9913;51.168;4.124;2023-01-24T02:55:23;2.65;76.69
19536;HTU21D;9913;51.168;4.124;2023-01-24T02:57:55;2.68;76.70
19536;HTU21D;9913;51.168;4.124;2023-01-24T03:00:40;2.68;76.91
19536;HTU21D;9913;51.168;4.124;2023-01-24T03:03:12;2.61;76.55
19536;HTU21D;9913;51.168;4.124;2023-01-24T03:05:40;2.60;76.75
19536;HTU21D;9913;51.168;4.124;2023-01-24T03:08:30;2.61;77.21
19536;HTU21D;9913;51.168;4.124;2023-01-24T03:11:01;2.59;76.63
19536;HTU21D;9913;51.168;4.124;2023-01-24T03:13:33;2.59;76.74
19536;HTU21D;9913;51.168;4.124;2023-01-24T03:16:22;2.60;76.65
19536;HTU21D;9913;51.168;4.124;2023-01-24T03:19:08;2.56;76.67
19536;HTU21D;9913;51.168;4.124;2023-01-24T03:21:55;2.58;76.73
19536;HTU21D;9913;51.168;4.124;2023-01-24T03:24:40;2.58;76.60
19536;HTU21D;9913;51.168;4.124;2023-01-24T03:27:27;2.57;76.68
19536;HTU21D;9913;51.168;4.124;2023-01-24T03:30:18;2.55;76.57
19536;HTU21D;9913;51.168;4.124;2023-01-24T03:33:05;2.54;76.77
19536;HTU21D;9913;51.168;4.124;2023-01-24T03:35:51;2.59;76.75
19536;HTU21D;9913;51.168;4.124;2023-01-24T03:38:26;2.56;76.93
19536;HTU21D;9913;51.168;4.124;2023-01-24T03:41:21;2.53;76.65
19536;HTU21D;9913;51.168;4.124;2023-01-24T03:43:50;2.53;76.63
19536;HTU21D;9913;51.168;4.124;2023-01-24T03:46:22;2.54;76.70
19536;HTU21D;9913;51.168;4.124;2023-01-24T03:48:52;2.53;76.60
19536;HTU21D;9913;51.168;4.124;2023-01-24T03:51:29;2.55;76.78
19536;HTU21D;9913;51.168;4.124;2023-01-24T03:54:15;2.57;76.40
19536;HTU21D;9913;51.168;4.124;2023-01-24T03:56:53;2.58;76.66
19536;HTU21D;9913;51.168;4.124;2023-01-24T03:59:23;2.57;76.78
19536;HTU21D;9913;51.168;4.124;2023-01-24T04:01:52;2.51;76.58
19536;HTU21D;9913;51.168;4.124;2023-01-24T04:04:27;2.53;77.02
19536;HTU21D;9913;51.168;4.124;2023-01-24T04:07:17;2.49;76.72
19536;HTU21D;9913;51.168;4.124;2023-01-24T04:09:57;2.50;76.82
19536;HTU21D;9913;51.168;4.124;2023-01-24T04:12:26;2.43;77.06
19536;HTU21D;9913;51.168;4.124;2023-01-24T04:14:55;2.44;76.79
19536;HTU21D;9913;51.168;4.124;2023-01-24T04:17:25;2.40;76.55
19536;HTU21D;9913;51.168;4.124;2023-01-24T04:19:53;2.51;76.85
19536;HTU21D;9913;51.168;4.124;2023-01-24T04:22:22;2.46;76.81
19536;HTU21D;9913;51.168;4.124;2023-01-24T04:24:52;2.47;76.99
19536;HTU21D;9913;51.168;4.124;2023-01-24T04:27:23;2.44;76.60
19536;HTU21D;9913;51.168;4.124;2023-01-24T04:30:14;2.42;76.74
19536;HTU21D;9913;51.168;4.124;2023-01-24T04:32:49;2.41;76.92
19536;HTU21D;9913;51.168;4.124;2023-01-24T04:35:26;2.40;76.73
19536;HTU21D;9913;51.168;4.124;2023-01-24T04:37:59;2.38;76.67
19536;HTU21D;9913;51.168;4.124;2023-01-24T04:40:45;2.46;76.98
19536;HTU21D;9913;51.168;4.124;2023-01-24T04:43:15;2.42;76.50
19536;HTU21D;9913;51.168;4.124;2023-01-24T04:45:47;2.42;76.73
19536;HTU21D;9913;51.168;4.124;2023-01-24T04:48:20;2.45;76.86
19536;HTU21D;9913;51.168;4.124;2023-01-24T04:50:50;2.35;76.89
19536;HTU21D;9913;51.168;4.124;2023-01-24T04:53:18;2.36;76.78
19536;HTU21D;9913;51.168;4.124;2023-01-24T04:55:49;2.42;76.68
19536;HTU21D;9913;51.168;4.124;2023-01-24T04:58:17;2.41;76.75
19536;HTU21D;9913;51.168;4.124;2023-01-24T05:00:47;2.41;76.63
19536;HTU21D;9913;51.168;4.124;2023-01-24T05:03:16;2.45;76.73
19536;HTU21D;9913;51.168;4.124;2023-01-24T05:05:50;2.42;76.52
19536;HTU21D;9913;51.168;4.124;2023-01-24T05:08:19;2.46;76.70
19536;HTU21D;9913;51.168;4.124;2023-01-24T05:10:49;2.46;76.87
19536;HTU21D;9913;51.168;4.124;2023-01-24T05:13:17;2.49;77.00
19536;HTU21D;9913;51.168;4.124;2023-01-24T05:15:47;2.47;76.59
19536;HTU21D;9913;51.168;4.124;2023-01-24T05:18:15;2.50;76.54
19536;HTU21D;9913;51.168;4.124;2023-01-24T05:20:44;2.50;76.66
19536;HTU21D;9913;51.168;4.124;2023-01-24T05:23:14;2.54;76.74
19536;HTU21D;9913;51.168;4.124;2023-01-24T05:25:46;2.47;76.70
19536;HTU21D;9913;51.168;4.124;2023-01-24T05:28:15;2.43;76.51
19536;HTU21D;9913;51.168;4.124;2023-01-24T05:30:46;2.41;76.52
19536;HTU21D;9913;51.168;4.124;2023-01-24T05:33:26;2.42;76.84
19536;HTU21D;9913;51.168;4.124;2023-01-24T05:35:58;2.47;76.75
19536;HTU21D;9913;51.168;4.124;2023-01-24T05:38:32;2.47;76.71
19536;HTU21D;9913;51.168;4.124;2023-01-24T05:41:02;2.46;76.89
19536;HTU21D;9913;51.168;4.124;2023-01-24T05:43:33;2.44;76.79
19536;HTU21D;9913;51.168;4.124;2023-01-24T05:46:03;2.47;76.82
19536;HTU21D;9913;51.168;4.124;2023-01-24T05:48:37;2.46;76.61
19536;HTU21D;9913;51.168;4.124;2023-01-24T05:51:07;2.43;76.73
19536;HTU21D;9913;51.168;4.124;2023-01-24T05:53:39;2.42;76.49
19536;HTU21D;9913;51.168;4.124;2023-01-24T05:56:10;2.42;76.63
19536;HTU21D;9913;51.168;4.124;2023-01-24T05:58:41;2.37;76.57
19536;HTU21D;9913;51.168;4.124;2023-01-24T06:01:16;2.41;76.58
19536;HTU21D;9913;51.168;4.124;2023-01-24T06:03:47;2.46;76.50
19536;HTU21D;9913;51.168;4.124;2023-01-24T06:06:19;2.46;76.61
19536;HTU21D;9913;51.168;4.124;2023-01-24T06:08:50;2.42;76.63
19536;HTU21D;9913;51.168;4.124;2023-01-24T06:11:21;2.42;76.74
19536;HTU21D;9913;51.168;4.124;2023-01-24T06:14:02;2.45;76.79
19536;HTU21D;9913;51.168;4.124;2023-01-24T06:16:31;2.46;76.66
19536;HTU21D;9913;51.168;4.124;2023-01-24T06:19:01;2.50;76.62
19536;HTU21D;9913;51.168;4.124;2023-01-24T06:21:43;2.51;76.82
19536;HTU21D;9913;51.168;4.124;2023-01-24T06:24:20;2.47;76.72
19536;HTU21D;9913;51.168;4.124;2023-01-24T06:27:13;2.49;76.55
19536;HTU21D;9913;51.168;4.124;2023-01-24T06:29:42;2.51;76.57
19536;HTU21D;9913;51.168;4.124;2023-01-24T06:32:19;2.46;76.61
19536;HTU21D;9913;51.168;4.124;2023-01-24T06:35:02;2.52;76.67
19536;HTU21D;9913;51.168;4.124;2023-01-24T06:37:39;2.53;76.41
19536;HTU21D;9913;51.168;4.124;2023-01-24T06:40:14;2.50;76.37
19536;HTU21D;9913;51.168;4.124;2023-01-24T06:42:43;2.46;76.31
19536;HTU21D;9913;51.168;4.124;2023-01-24T06:45:12;2.43;76.38
19536;HTU21D;9913;51.168;4.124;2023-01-24T06:47:40;2.50;76.76
19536;HTU21D;9913;51.168;4.124;2023-01-24T06:50:13;2.52;76.84
19536;HTU21D;9913;51.168;4.124;2023-01-24T06:52:44;2.46;76.53
19536;HTU21D;9913;51.168;4.124;2023-01-24T06:55:15;2.43;76.30
19536;HTU21D;9913;51.168;4.124;2023-01-24T06:57:43;2.46;76.57
19536;HTU21D;9913;51.168;4.124;2023-01-24T07:00:14;2.50;76.70
19536;HTU21D;9913;51.168;4.124;2023-01-24T07:02:43;2.46;76.25
19536;HTU21D;9913;51.168;4.124;2023-01-24T07:05:11;2.45;76.56
19536;HTU21D;9913;51.168;4.124;2023-01-24T07:07:39;2.50;76.70
19536;HTU21D;9913;51.168;4.124;2023-01-24T07:10:09;2.47;76.38
19536;HTU21D;9913;51.168;4.124;2023-01-24T07:12:41;2.52;76.24
19536;HTU21D;9913;51.168;4.124;2023-01-24T07:15:10;2.50;76.62
19536;HTU21D;9913;51.168;4.124;2023-01-24T07:17:39;2.44;76.11
19536;HTU21D;9913;51.168;4.124;2023-01-24T07:20:08;2.42;76.59
19536;HTU21D;9913;51.168;4.124;2023-01-24T07:22:39;2.38;76.57
19536;HTU21D;9913;51.168;4.124;2023-01-24T07:25:12;2.35;76.19
19536;HTU21D;9913;51.168;4.124;2023-01-24T07:27:43;2.38;76.78
19536;HTU21D;9913;51.168;4.124;2023-01-24T07:30:12;2.43;76.48
19536;HTU21D;9913;51.168;4.124;2023-01-24T07:32:41;2.42;76.49
19536;HTU21D;9913;51.168;4.124;2023-01-24T07:35:10;2.40;76.51
19536;HTU21D;9913;51.168;4.124;2023-01-24T07:37:39;2.43;76.59
19536;HTU21D;9913;51.168;4.124;2023-01-24T07:40:11;2.38;76.47
19536;HTU21D;9913;51.168;4.124;2023-01-24T07:42:39;2.34;76.60
19536;HTU21D;9913;51.168;4.124;2023-01-24T07:45:10;2.41;76.53
19536;HTU21D;9913;51.168;4.124;2023-01-24T07:47:38;2.34;76.53
19536;HTU21D;9913;51.168;4.124;2023-01-24T07:50:08;2.38;76.71
19536;HTU21D;9913;51.168;4.124;2023-01-24T07:52:37;2.31;76.20
19536;HTU21D;9913;51.168;4.124;2023-01-24T07:55:05;2.30;76.70
19536;HTU21D;9913;51.168;4.124;2023-01-24T07:57:34;2.29;76.63
19536;HTU21D;9913;51.168;4.124;2023-01-24T08:00:03;2.36;76.29
19536;HTU21D;9913;51.168;4.124;2023-01-24T08:02:38;2.38;76.63
19536;HTU21D;9913;51.168;4.124;2023-01-24T08:05:08;2.40;76.75
19536;HTU21D;9913;51.168;4.124;2023-01-24T08:07:37;2.32;76.45
19536;HTU21D;9913;51.168;4.124;2023-01-24T08:10:07;2.38;76.21
19536;HTU21D;9913;51.168;4.124;2023-01-24T08:12:35;2.46;76.48
19536;HTU21D;9913;51.168;4.124;2023-01-24T08:15:04;2.39;76.50
19536;HTU21D;9913;51.168;4.124;2023-01-24T08:17:35;2.42;76.32
19536;HTU21D;9913;51.168;4.124;2023-01-24T08:20:06;2.45;76.60
19536;HTU21D;9913;51.168;4.124;2023-01-24T08:22:37;2.41;76.46
19536;HTU21D;9913;51.168;4.124;2023-01-24T08:25:22;2.42;76.37
19536;HTU21D;9913;51.168;4.124;2023-01-24T08:27:52;2.40;76.36
19536;HTU21D;9913;51.168;4.124;2023-01-24T08:30:28;2.39;76.58
19536;HTU21D;9913;51.168;4.124;2023-01-24T08:33:00;2.41;76.43
19536;HTU21D;9913;51.168;4.124;2023-01-24T08:35:31;2.46;76.36
19536;HTU21D;9913;51.168;4.124;2023-01-24T08:37:59;2.44;76.50
19536;HTU21D;9913;51.168;4.124;2023-01-24T08:40:27;2.40;76.34
19536;HTU21D;9913;51.168;4.124;2023-01-24T08:43:07;2.43;76.54
19536;HTU21D;9913;51.168;4.124;2023-01-24T08:45:43;2.46;76.59
19536;HTU21D;9913;51.168;4.124;2023-01-24T08:48:12;2.38;76.47
19536;HTU21D;9913;51.168;4.124;2023-01-24T08:50:42;2.37;76.58
19536;HTU21D;9913;51.168;4.124;2023-01-24T08:53:11;2.39;76.54
19536;HTU21D;9913;51.168;4.124;2023-01-24T08:55:39;2.35;76.76
19536;HTU21D;9913;51.168;4.124;2023-01-24T08:58:08;2.36;76.70
19536;HTU21D;9913;51.168;4.124;2023-01-24T09:00:37;2.42;76.37
19536;HTU21D;9913;51.168;4.124;2023-01-24T09:03:05;2.41;76.60
19536;HTU21D;9913;51.168;4.124;2023-01-24T09:05:33;2.44;76.59
19536;HTU21D;9913;51.168;4.124;2023-01-24T09:08:05;2.36;76.32
19536;HTU21D;9913;51.168;4.124;2023-01-24T09:10:33;2.39;76.82
19536;HTU21D;9913;51.168;4.124;2023-01-24T09:13:02;2.40;76.62
19536;HTU21D;9913;51.168;4.124;2023-01-24T09:15:31;2.42;76.68
19536;HTU21D;9913;51.168;4.124;2023-01-24T09:18:00;2.42;76.51
19536;HTU21D;9913;51.168;4.124;2023-01-24T09:20:29;2.42;76.69
19536;HTU21D;9913;51.168;4.124;2023-01-24T09:22:57;2.43;76.60
19536;HTU21D;9913;51.168;4.124;2023-01-24T09:25:27;2.46;76.57
19536;HTU21D;9913;51.168;4.124;2023-01-24T09:27:57;2.49;76.86
19536;HTU21D;9913;51.168;4.124;2023-01-24T09:30:25;2.45;76.47
19536;HTU21D;9913;51.168;4.124;2023-01-24T09:32:55;2.40;76.65
19536;HTU21D;9913;51.168;4.124;2023-01-24T09:35:23;2.53;76.55
19536;HTU21D;9913;51.168;4.124;2023-01-24T09:37:51;2.60;76.44
19536;HTU21D;9913;51.168;4.124;2023-01-24T09:40:21;2.73;76.68
19536;HTU21D;9913;51.168;4.124;2023-01-24T09:43:00;2.67;76.73
19536;HTU21D;9913;51.168;4.124;2023-01-24T09:45:33;2.78;76.96
19536;HTU21D;9913;51.168;4.124;2023-01-24T09:48:05;2.81;76.21
19536;HTU21D;9913;51.168;4.124;2023-01-24T09:50:38;2.81;76.66
19536;HTU21D;9913;51.168;4.124;2023-01-24T09:53:15;2.87;76.30
19536;HTU21D;9913;51.168;4.124;2023-01-24T09:55:46;2.66;76.57
19536;HTU21D;9913;51.168;4.124;2023-01-24T09:58:24;2.65;76.54
19536;HTU21D;9913;51.168;4.124;2023-01-24T10:00:59;2.58;76.10
19536;HTU21D;9913;51.168;4.124;2023-01-24T10:03:28;2.61;76.44
19536;HTU21D;9913;51.168;4.124;2023-01-24T10:05:58;2.67;76.35
19536;HTU21D;9913;51.168;4.124;2023-01-24T10:08:34;2.67;76.89
19536;HTU21D;9913;51.168;4.124;2023-01-24T10:11:19;2.60;76.47
19536;HTU21D;9913;51.168;4.124;2023-01-24T10:14:05;2.61;76.21
19536;HTU21D;9913;51.168;4.124;2023-01-24T10:16:56;2.76;76.61
19536;HTU21D;9913;51.168;4.124;2023-01-24T10:19:48;2.74;76.33
19536;HTU21D;9913;51.168;4.124;2023-01-24T10:22:36;2.70;76.68
19536;HTU21D;9913;51.168;4.124;2023-01-24T10:25:13;2.68;76.25
19536;HTU21D;9913;51.168;4.124;2023-01-24T10:27:45;2.74;76.71
19536;HTU21D;9913;51.168;4.124;2023-01-24T10:30:20;2.86;76.42
19536;HTU21D;9913;51.168;4.124;2023-01-24T10:32:52;2.76;76.65
19536;HTU21D;9913;51.168;4.124;2023-01-24T10:35:28;2.76;76.79
19536;HTU21D;9913;51.168;4.124;2023-01-24T10:37:59;2.81;77.05
19536;HTU21D;9913;51.168;4.124;2023-01-24T10:40:28;2.84;76.76
19536;HTU21D;9913;51.168;4.124;2023-01-24T10:42:56;2.87;76.61
19536;HTU21D;9913;51.168;4.124;2023-01-24T10:45:42;2.91;76.91
19536;HTU21D;9913;51.168;4.124;2023-01-24T10:48:24;2.84;76.75
19536;HTU21D;9913;51.168;4.124;2023-01-24T10:51:09;2.74;76.66
19536;HTU21D;9913;51.168;4.124;2023-01-24T10:53:38;2.74;76.56
19536;HTU21D;9913;51.168;4.124;2023-01-24T10:56:07;2.74;76.89
19536;HTU21D;9913;51.168;4.124;2023-01-24T10:58:40;2.69;76.95
19536;HTU21D;9913;51.168;4.124;2023-01-24T11:01:18;2.65;76.89
19536;HTU21D;9913;51.168;4.124;2023-01-24T11:03:48;2.64;76.63
19536;HTU21D;9913;51.168;4.124;2023-01-24T11:06:37;2.75;76.72
19536;HTU21D;9913;51.168;4.124;2023-01-24T11:09:10;2.84;76.95
19536;HTU21D;9913;51.168;4.124;2023-01-24T11:11:42;2.79;76.86
19536;HTU21D;9913;51.168;4.124;2023-01-24T11:14:14;2.79;76.58
19536;HTU21D;9913;51.168;4.124;2023-01-24T11:16:47;2.87;76.77
19536;HTU21D;9913;51.168;4.124;2023-01-24T11:19:24;2.78;76.83
19536;HTU21D;9913;51.168;4.124;2023-01-24T11:21:54;2.76;76.95
19536;HTU21D;9913;51.168;4.124;2023-01-24T11:24:23;2.75;76.73
19536;HTU21D;9913;51.168;4.124;2023-01-24T11:26:57;2.79;76.86
19536;HTU21D;9913;51.168;4.124;2023-01-24T11:29:26;2.83;76.61
19536;HTU21D;9913;51.168;4.124;2023-01-24T11:31:57;2.79;76.37
19536;HTU21D;9913;51.168;4.124;2023-01-24T11:34:45;2.88;76.59
19536;HTU21D;9913;51.168;4.124;2023-01-24T11:37:35;2.94;77.09
19536;HTU21D;9913;51.168;4.124;2023-01-24T11:40:19;2.91;76.48
19536;HTU21D;9913;51.168;4.124;2023-01-24T11:42:59;2.84;76.73
19536;HTU21D;9913;51.168;4.124;2023-01-24T11:45:41;2.98;76.33
19536;HTU21D;9913;51.168;4.124;2023-01-24T11:48:18;2.84;76.38
19536;HTU21D;9913;51.168;4.124;2023-01-24T11:50:57;2.86;76.47
19536;HTU21D;9913;51.168;4.124;2023-01-24T11:53:52;2.94;76.76
19536;HTU21D;9913;51.168;4.124;2023-01-24T11:56:31;2.93;76.57
19536;HTU21D;9913;51.168;4.124;2023-01-24T11:59:17;3.00;77.18
19536;HTU21D;9913;51.168;4.124;2023-01-24T12:01:52;2.94;76.84
19536;HTU21D;9913;51.168;4.124;2023-01-24T12:04:50;2.93;76.38
19536;HTU21D;9913;51.168;4.124;2023-01-24T12:07:24;2.91;76.13
19536;HTU21D;9913;51.168;4.124;2023-01-24T12:09:58;2.82;76.61
19536;HTU21D;9913;51.168;4.124;2023-01-24T12:12:35;2.88;76.76
19536;HTU21D;9913;51.168;4.124;2023-01-24T12:15:30;2.95;76.89
19536;HTU21D;9913;51.168;4.124;2023-01-24T12:21:05;2.94;76.51
19536;HTU21D;9913;51.168;4.124;2023-01-24T12:23:49;2.87;76.44
19536;HTU21D;9913;51.168;4.124;2023-01-24T12:26:23;2.81;76.72
19536;HTU21D;9913;51.168;4.124;2023-01-24T12:29:00;2.87;76.86
19536;HTU21D;9913;51.168;4.124;2023-01-24T12:31:39;2.91;76.43
19536;HTU21D;9913;51.168;4.124;2023-01-24T12:34:20;3.00;76.89
19536;HTU21D;9913;51.168;4.124;2023-01-24T12:36:58;3.08;76.92
19536;HTU21D;9913;51.168;4.124;2023-01-24T12:39:34;2.84;76.97
19536;HTU21D;9913;51.168;4.124;2023-01-24T12:42:10;2.78;77.13
19536;HTU21D;9913;51.168;4.124;2023-01-24T12:44:46;2.84;76.95
19536;HTU21D;9913;51.168;4.124;2023-01-24T12:47:23;2.87;76.68
19536;HTU21D;9913;51.168;4.124;2023-01-24T12:50:03;2.95;76.47
19536;HTU21D;9913;51.168;4.124;2023-01-24T12:52:42;2.91;76.64
19536;HTU21D;9913;51.168;4.124;2023-01-24T12:55:19;2.98;76.62
19536;HTU21D;9913;51.168;4.124;2023-01-24T12:57:51;2.97;76.73
19536;HTU21D;9913;51.168;4.124;2023-01-24T13:00:22;2.94;77.21
19536;HTU21D;9913;51.168;4.124;2023-01-24T13:03:20;2.96;76.70
19536;HTU21D;9913;51.168;4.124;2023-01-24T13:05:55;2.90;76.63
19536;HTU21D;9913;51.168;4.124;2023-01-24T13:08:35;3.02;77.05
19536;HTU21D;9913;51.168;4.124;2023-01-24T13:11:16;3.03;76.60
19536;HTU21D;9913;51.168;4.124;2023-01-24T13:13:53;2.97;76.77
19536;HTU21D;9913;51.168;4.124;2023-01-24T13:19:33;2.98;77.15
19536;HTU21D;9913;51.168;4.124;2023-01-24T13:22:16;2.94;76.73
19536;HTU21D;9913;51.168;4.124;2023-01-24T13:24:59;2.88;76.99
19536;HTU21D;9913;51.168;4.124;2023-01-24T13:27:36;2.80;76.95
19536;HTU21D;9913;51.168;4.124;2023-01-24T13:30:24;2.78;77.02
19536;HTU21D;9913;51.168;4.124;2023-01-24T13:32:57;2.74;77.47
19536;HTU21D;9913;51.168;4.124;2023-01-24T13:35:28;2.85;77.11
19536;HTU21D;9913;51.168;4.124;2023-01-24T13:38:02;2.94;76.53
19536;HTU21D;9913;51.168;4.124;2023-01-24T13:40:34;2.99;77.52
19536;HTU21D;9913;51.168;4.124;2023-01-24T13:46:14;2.96;77.25
19536;HTU21D;9913;51.168;4.124;2023-01-24T13:48:45;2.94;77.40
19536;HTU21D;9913;51.168;4.124;2023-01-24T13:51:47;2.81;76.78
19536;HTU21D;9913;51.168;4.124;2023-01-24T13:54:34;2.83;77.14
19536;HTU21D;9913;51.168;4.124;2023-01-24T13:57:19;2.87;77.59
19536;HTU21D;9913;51.168;4.124;2023-01-24T14:00:03;2.86;77.02
19536;HTU21D;9913;51.168;4.124;2023-01-24T14:02:40;2.81;77.15
19536;HTU21D;9913;51.168;4.124;2023-01-24T14:08:47;2.76;76.66
19536;HTU21D;9913;51.168;4.124;2023-01-24T14:11:34;2.87;76.70
19536;HTU21D;9913;51.168;4.124;2023-01-24T14:14:28;2.95;76.98
19536;HTU21D;9913;51.168;4.124;2023-01-24T14:17:12;2.85;76.41
19536;HTU21D;9913;51.168;4.124;2023-01-24T14:19:55;2.90;77.27
19536;HTU21D;9913;51.168;4.124;2023-01-24T14:22:33;2.91;76.23
19536;HTU21D;9913;51.168;4.124;2023-01-24T14:25:12;2.91;77.00
19536;HTU21D;9913;51.168;4.124;2023-01-24T14:27:48;2.90;77.45
19536;HTU21D;9913;51.168;4.124;2023-01-24T14:30:42;2.83;76.70
19536;HTU21D;9913;51.168;4.124;2023-01-24T14:33:47;2.67;76.35
19536;HTU21D;9913;51.168;4.124;2023-01-24T14:36:23;2.83;77.13
19536;HTU21D;9913;51.168;4.124;2023-01-24T14:39:18;2.84;77.26
19536;HTU21D;9913;51.168;4.124;2023-01-24T14:41:49;2.70;77.05
19536;HTU21D;9913;51.168;4.124;2023-01-24T14:44:20;2.56;76.74
19536;HTU21D;9913;51.168;4.124;2023-01-24T14:46:55;2.56;76.71
19536;HTU21D;9913;51.168;4.124;2023-01-24T14:49:27;2.60;77.25
19536;HTU21D;9913;51.168;4.124;2023-01-24T14:51:56;2.55;77.15
19536;HTU21D;9913;51.168;4.124;2023-01-24T14:54:44;2.52;76.95
19536;HTU21D;9913;51.168;4.124;2023-01-24T14:57:24;2.49;77.50
19536;HTU21D;9913;51.168;4.124;2023-01-24T15:00:06;2.42;76.67
19536;HTU21D;9913;51.168;4.124;2023-01-24T15:02:38;2.44;76.94
19536;HTU21D;9913;51.168;4.124;2023-01-24T15:05:22;2.51;77.03
19536;HTU21D;9913;51.168;4.124;2023-01-24T15:07:55;2.55;76.81
19536;HTU21D;9913;51.168;4.124;2023-01-24T15:10:25;2.56;76.64
19536;HTU21D;9913;51.168;4.124;2023-01-24T15:12:59;2.49;76.88
19536;HTU21D;9913;51.168;4.124;2023-01-24T15:15:29;2.44;77.11
19536;HTU21D;9913;51.168;4.124;2023-01-24T15:18:01;2.41;76.50
19536;HTU21D;9913;51.168;4.124;2023-01-24T15:20:31;2.49;76.95
19536;HTU21D;9913;51.168;4.124;2023-01-24T15:23:01;2.46;76.95
19536;HTU21D;9913;51.168;4.124;2023-01-24T15:25:37;2.41;76.82
19536;HTU21D;9913;51.168;4.124;2023-01-24T15:28:16;2.52;76.68
19536;HTU21D;9913;51.168;4.124;2023-01-24T15:30:50;2.51;77.41
19536;HTU21D;9913;51.168;4.124;2023-01-24T15:33:21;2.52;77.15
19536;HTU21D;9913;51.168;4.124;2023-01-24T15:35:50;2.40;77.11
19536;HTU21D;9913;51.168;4.124;2023-01-24T15:38:26;2.40;77.13
19536;HTU21D;9913;51.168;4.124;2023-01-24T15:40:59;2.43;77.07
19536;HTU21D;9913;51.168;4.124;2023-01-24T15:43:31;2.37;76.70
19536;HTU21D;9913;51.168;4.124;2023-01-24T15:46:21;2.30;77.16
19536;HTU21D;9913;51.168;4.124;2023-01-24T15:49:30;2.25;77.02
19536;HTU21D;9913;51.168;4.124;2023-01-24T15:54:48;2.20;76.24
19536;HTU21D;9913;51.168;4.124;2023-01-24T15:57:22;2.11;77.02
19536;HTU21D;9913;51.168;4.124;2023-01-24T15:59:53;2.03;76.67
19536;HTU21D;9913;51.168;4.124;2023-01-24T16:02:22;2.03;76.95
19536;HTU21D;9913;51.168;4.124;2023-01-24T16:04:51;2.11;77.05
19536;HTU21D;9913;51.168;4.124;2023-01-24T16:07:20;2.13;76.98
19536;HTU21D;9913;51.168;4.124;2023-01-24T16:09:49;2.20;77.13
19536;HTU21D;9913;51.168;4.124;2023-01-24T16:12:22;2.21;76.75
19536;HTU21D;9913;51.168;4.124;2023-01-24T16:14:53;2.21;77.06
19536;HTU21D;9913;51.168;4.124;2023-01-24T16:17:36;2.25;76.69
19536;HTU21D;9913;51.168;4.124;2023-01-24T16:20:16;2.25;76.60
19536;HTU21D;9913;51.168;4.124;2023-01-24T16:22:45;2.23;77.03
19536;HTU21D;9913;51.168;4.124;2023-01-24T16:25:14;2.20;77.00
19536;HTU21D;9913;51.168;4.124;2023-01-24T16:27:43;2.16;76.83
19536;HTU21D;9913;51.168;4.124;2023-01-24T16:30:13;2.14;77.05
19536;HTU21D;9913;51.168;4.124;2023-01-24T16:32:43;2.13;76.90
19536;HTU21D;9913;51.168;4.124;2023-01-24T16:35:13;2.15;76.93
19536;HTU21D;9913;51.168;4.124;2023-01-24T16:37:41;2.15;76.93
19536;HTU21D;9913;51.168;4.124;2023-01-24T16:40:10;2.14;77.05
19536;HTU21D;9913;51.168;4.124;2023-01-24T16:42:41;2.09;76.58
19536;HTU21D;9913;51.168;4.124;2023-01-24T16:45:12;2.08;76.83